Time;durP1;ratioP1;P1;durP2;ratioP2;P2;SDS_P1;SDS_P2;PMS_P1;PMS_P2;Temp;Humidity;BMP_temperature;BMP_pressure;BME280_temperature;BME280_humidity;BME280_pressure;Samples;Min_cycle;Max_cycle;Signal;HPM_P1;HPM_P2
2022/09/28 00:01:37;;;;;;;2.43;1.90;;;;;;;;;;5054287;28;20209;-88
2022/09/28 00:04:05;;;;;;;5.80;2.07;;;;;;;;;;5053803;28;20237;-88
2022/09/28 00:06:33;;;;;;;4.23;2.20;;;;;;;;;;5054074;28;20205;-89
2022/09/28 00:09:01;;;;;;;2.10;2.00;;;;;;;;;;5053985;28;20242;-89
2022/09/28 00:11:29;;;;;;;3.37;1.97;;;;;;;;;;5055769;28;20539;-90
2022/09/28 00:13:57;;;;;;;2.47;2.10;;;;;;;;;;5065437;28;20238;-89
2022/09/28 00:16:26;;;;;;;1.83;1.73;;;;;;;;;;5055599;28;20232;-89
2022/09/28 00:18:53;;;;;;;2.77;1.90;;;;;;;;;;5055318;28;20250;-89
2022/09/28 00:21:22;;;;;;;3.33;2.10;;;;;;;;;;5055356;28;20210;-89
2022/09/28 00:26:37;;;;;;;2.63;2.00;;;;;;;;;;5054246;28;20220;-89
2022/09/28 00:29:05;;;;;;;2.07;1.90;;;;;;;;;;5053931;28;20238;-90
2022/09/28 00:31:32;;;;;;;2.27;2.07;;;;;;;;;;5053936;28;20202;-90
2022/09/28 00:34:00;;;;;;;3.43;2.13;;;;;;;;;;5053401;28;20241;-89
2022/09/28 00:36:27;;;;;;;2.47;2.20;;;;;;;;;;5053440;28;20244;-90
2022/09/28 00:38:55;;;;;;;2.40;2.20;;;;;;;;;;5052861;28;20261;-90
2022/09/28 00:41:22;;;;;;;4.77;2.50;;;;;;;;;;5040977;28;20211;-89
2022/09/28 00:43:51;;;;;;;2.10;2.00;;;;;;;;;;5053029;28;20807;-90
2022/09/28 00:46:19;;;;;;;2.40;2.20;;;;;;;;;;5053798;28;20209;-90
2022/09/28 00:48:50;;;;;;;2.30;2.20;;;;;;;;;;5052827;28;20234;-90
2022/09/28 00:51:18;;;;;;;3.80;2.20;;;;;;;;;;5053911;28;20191;-90
2022/09/28 00:53:45;;;;;;;2.30;2.03;;;;;;;;;;5053670;28;20241;-90
2022/09/28 00:56:13;;;;;;;3.20;2.20;;;;;;;;;;5037090;28;20231;-90
2022/09/28 00:58:42;;;;;;;3.23;2.20;;;;;;;;;;5052847;28;20612;-90
2022/09/28 01:01:10;;;;;;;2.67;2.10;;;;;;;;;;5052988;28;20213;-89
2022/09/28 01:03:40;;;;;;;4.87;2.10;;;;;;;;;;5049432;28;20235;-89
2022/09/28 01:06:08;;;;;;;2.03;1.93;;;;;;;;;;5048046;28;20212;-90
2022/09/28 01:11:41;;;;;;;2.13;1.90;;;;;;;;;;5048589;28;20587;-88
2022/09/28 01:14:09;;;;;;;2.37;1.93;;;;;;;;;;5052696;28;20230;-88
2022/09/28 01:16:41;;;;;;;2.10;2.00;;;;;;;;;;5052788;28;20252;-88
2022/09/28 01:19:16;;;;;;;2.27;1.97;;;;;;;;;;5052452;28;20254;-89
2022/09/28 01:21:50;;;;;;;1.60;1.50;;;;;;;;;;5052933;28;20244;-87
2022/09/28 01:24:28;;;;;;;1.73;1.60;;;;;;;;;;5052176;28;20800;-88
2022/09/28 01:27:10;;;;;;;3.97;1.80;;;;;;;;;;5052908;28;20197;-87
2022/09/28 01:29:42;;;;;;;1.37;1.33;;;;;;;;;;5052684;28;20312;-86
2022/09/28 01:32:14;;;;;;;1.63;1.53;;;;;;;;;;5052944;28;20190;-89
2022/09/28 01:34:44;;;;;;;1.50;1.50;;;;;;;;;;5052039;28;20713;-89
2022/09/28 01:37:13;;;;;;;2.27;1.70;;;;;;;;;;5052643;28;20670;-88
2022/09/28 01:39:41;;;;;;;1.70;1.60;;;;;;;;;;5052058;28;20605;-88
2022/09/28 01:42:12;;;;;;;1.50;1.40;;;;;;;;;;5052618;28;20198;-87
2022/09/28 01:44:42;;;;;;;3.17;1.70;;;;;;;;;;5051936;28;20875;-88
2022/09/28 01:47:10;;;;;;;1.60;1.50;;;;;;;;;;5054747;28;20546;-88
2022/09/28 01:49:40;;;;;;;1.60;1.50;;;;;;;;;;5056368;28;20241;-88
2022/09/28 01:52:11;;;;;;;1.50;1.40;;;;;;;;;;5056722;28;20209;-88
2022/09/28 01:54:41;;;;;;;1.53;1.40;;;;;;;;;;5056580;28;20233;-87
2022/09/28 01:57:09;;;;;;;1.60;1.50;;;;;;;;;;5057113;28;20214;-88
2022/09/28 01:59:40;;;;;;;2.20;1.50;;;;;;;;;;5056142;28;20241;-86
2022/09/28 02:02:10;;;;;;;3.50;1.87;;;;;;;;;;5056759;28;20190;-88
2022/09/28 02:04:38;;;;;;;1.60;1.60;;;;;;;;;;5056295;28;20245;-87
2022/09/28 02:07:08;;;;;;;1.53;1.40;;;;;;;;;;5056211;28;20205;-87
2022/09/28 02:09:36;;;;;;;1.47;1.30;;;;;;;;;;5055661;28;20727;-87
2022/09/28 02:12:06;;;;;;;1.40;1.40;;;;;;;;;;5056215;28;20201;-87
2022/09/28 02:14:34;;;;;;;1.67;1.57;;;;;;;;;;5055962;28;20234;-88
2022/09/28 02:17:03;;;;;;;2.10;1.70;;;;;;;;;;5056117;28;20542;-87
2022/09/28 02:19:31;;;;;;;1.70;1.60;;;;;;;;;;5055570;28;20245;-89
2022/09/28 02:22:02;;;;;;;2.00;1.90;;;;;;;;;;5056140;28;20828;-88
2022/09/28 02:24:34;;;;;;;1.70;1.60;;;;;;;;;;5055465;28;20599;-88
2022/09/28 02:27:03;;;;;;;1.70;1.60;;;;;;;;;;5056322;28;20202;-88
2022/09/28 02:29:30;;;;;;;1.87;1.77;;;;;;;;;;5055398;28;20233;-88
2022/09/28 02:31:57;;;;;;;1.90;1.70;;;;;;;;;;5055794;28;20217;-88
2022/09/28 02:34:25;;;;;;;1.83;1.73;;;;;;;;;;5055922;28;20245;-88
2022/09/28 02:36:53;;;;;;;2.87;1.73;;;;;;;;;;5055834;28;20203;-87
2022/09/28 02:39:20;;;;;;;1.80;1.70;;;;;;;;;;5055371;28;20716;-87
2022/09/28 02:41:52;;;;;;;2.13;1.80;;;;;;;;;;5056661;28;20217;-90
2022/09/28 02:44:28;;;;;;;1.80;1.70;;;;;;;;;;5056125;28;20299;-87
2022/09/28 02:47:00;;;;;;;1.83;1.73;;;;;;;;;;5056300;28;20186;-87
2022/09/28 02:49:32;;;;;;;1.60;1.60;;;;;;;;;;5055878;28;20261;-87
2022/09/28 02:52:08;;;;;;;1.90;1.80;;;;;;;;;;5056494;28;20202;-88
2022/09/28 02:54:53;;;;;;;2.10;1.90;;;;;;;;;;5056194;28;20249;-87
2022/09/28 02:57:30;;;;;;;2.70;1.90;;;;;;;;;;5056087;28;20205;-87
2022/09/28 03:00:01;;;;;;;1.87;1.87;;;;;;;;;;5054301;28;20686;-88
2022/09/28 03:02:30;;;;;;;4.00;1.70;;;;;;;;;;5056044;28;20248;-87
2022/09/28 03:05:11;;;;;;;2.00;1.80;;;;;;;;;;5055422;28;20257;-87
2022/09/28 03:07:41;;;;;;;3.50;2.10;;;;;;;;;;5055690;28;20210;-87
2022/09/28 03:10:11;;;;;;;1.83;1.73;;;;;;;;;;5055341;28;20721;-87
2022/09/28 03:12:39;;;;;;;2.50;1.80;;;;;;;;;;5055632;28;20209;-87
2022/09/28 03:15:07;;;;;;;1.57;1.57;;;;;;;;;;5055398;28;20233;-88
2022/09/28 03:17:34;;;;;;;1.23;1.23;;;;;;;;;;5055721;28;20206;-87
2022/09/28 03:20:01;;;;;;;1.60;1.60;;;;;;;;;;5059768;28;20260;-87
2022/09/28 03:22:30;;;;;;;1.70;1.60;;;;;;;;;;5056384;28;20238;-88
2022/09/28 03:24:57;;;;;;;1.60;1.50;;;;;;;;;;5055821;28;20240;-87
2022/09/28 03:27:24;;;;;;;1.50;1.40;;;;;;;;;;5056420;28;20296;-86
2022/09/28 03:29:51;;;;;;;1.70;1.40;;;;;;;;;;5054473;28;20234;-88
2022/09/28 03:32:18;;;;;;;1.93;1.67;;;;;;;;;;5055521;28;20663;-88
2022/09/28 03:34:46;;;;;;;1.70;1.60;;;;;;;;;;5054607;28;20230;-87
2022/09/28 03:37:13;;;;;;;1.97;1.87;;;;;;;;;;5055153;28;20289;-85
2022/09/28 03:39:41;;;;;;;1.73;1.60;;;;;;;;;;5055018;28;20238;-88
2022/09/28 03:42:08;;;;;;;1.87;1.20;;;;;;;;;;5056285;28;20210;-88
2022/09/28 03:44:35;;;;;;;1.07;1.07;;;;;;;;;;5055768;28;20234;-89
2022/09/28 03:47:03;;;;;;;1.40;1.30;;;;;;;;;;5055966;28;20194;-88
2022/09/28 03:49:30;;;;;;;1.03;1.03;;;;;;;;;;5055217;28;20234;-88
2022/09/28 03:51:57;;;;;;;1.20;1.20;;;;;;;;;;5055589;28;20692;-88
2022/09/28 03:54:24;;;;;;;1.17;1.10;;;;;;;;;;5055217;28;20257;-88
2022/09/28 03:56:53;;;;;;;1.30;1.20;;;;;;;;;;5055810;28;20609;-88
2022/09/28 03:59:20;;;;;;;1.40;1.30;;;;;;;;;;5055057;28;20237;-88
2022/09/28 04:01:49;;;;;;;1.27;1.27;;;;;;;;;;5055298;28;20233;-88
2022/09/28 04:04:19;;;;;;;1.43;1.30;;;;;;;;;;5054414;28;20237;-88
2022/09/28 04:06:46;;;;;;;1.40;1.30;;;;;;;;;;5055464;28;20588;-88
2022/09/28 04:09:24;;;;;;;1.93;1.40;;;;;;;;;;5053845;28;20233;-88
2022/09/28 04:11:52;;;;;;;1.00;1.00;;;;;;;;;;5054928;28;20656;-88
2022/09/28 04:14:19;;;;;;;1.83;1.40;;;;;;;;;;5053862;28;20237;-88
2022/09/28 04:16:47;;;;;;;1.37;1.30;;;;;;;;;;5055016;28;20206;-88
2022/09/28 04:19:14;;;;;;;1.73;1.63;;;;;;;;;;5054530;28;20237;-88
2022/09/28 04:21:41;;;;;;;2.10;1.37;;;;;;;;;;5055307;28;20540;-88
2022/09/28 04:24:09;;;;;;;1.53;1.43;;;;;;;;;;5054569;28;20233;-88
2022/09/28 04:26:36;;;;;;;2.30;1.87;;;;;;;;;;5055147;28;20202;-87
2022/09/28 04:29:16;;;;;;;1.90;1.80;;;;;;;;;;5053950;28;20242;-88
2022/09/28 04:31:45;;;;;;;2.30;2.20;;;;;;;;;;5055189;28;20201;-89
2022/09/28 04:34:13;;;;;;;2.77;2.30;;;;;;;;;;5054022;28;20690;-88
2022/09/28 04:36:40;;;;;;;2.67;2.47;;;;;;;;;;5054873;28;20213;-87
2022/09/28 04:39:07;;;;;;;3.50;3.20;;;;;;;;;;5053995;28;20717;-88
2022/09/28 04:41:34;;;;;;;2.73;2.53;;;;;;;;;;5054515;28;20206;-88
2022/09/28 04:44:02;;;;;;;2.93;2.50;;;;;;;;;;5053710;28;20237;-87
2022/09/28 04:46:30;;;;;;;2.37;2.00;;;;;;;;;;5053908;28;20210;-87
2022/09/28 04:48:57;;;;;;;1.77;1.63;;;;;;;;;;5052875;28;20714;-87
2022/09/28 04:51:25;;;;;;;2.00;1.80;;;;;;;;;;5053983;28;20202;-87
2022/09/28 04:53:52;;;;;;;1.97;1.80;;;;;;;;;;5053368;28;20230;-87
2022/09/28 04:56:20;;;;;;;2.63;2.50;;;;;;;;;;5053633;28;20205;-87
2022/09/28 04:58:47;;;;;;;2.97;2.77;;;;;;;;;;5053027;28;20275;-87
2022/09/28 05:01:15;;;;;;;1.90;1.80;;;;;;;;;;5053588;28;20210;-88
2022/09/28 05:03:44;;;;;;;2.23;1.97;;;;;;;;;;5053422;28;20238;-88
2022/09/28 05:06:14;;;;;;;1.97;1.87;;;;;;;;;;5053384;28;20198;-88
2022/09/28 05:08:41;;;;;;;2.30;2.20;;;;;;;;;;5053158;28;20229;-85
2022/09/28 05:11:09;;;;;;;4.83;4.47;;;;;;;;;;5054155;28;20210;-84
2022/09/28 05:13:40;;;;;;;5.50;2.90;;;;;;;;;;5053164;28;20646;-84
2022/09/28 05:16:08;;;;;;;2.60;2.13;;;;;;;;;;5052793;28;20619;-85
2022/09/28 05:18:35;;;;;;;2.00;1.80;;;;;;;;;;5052274;28;20245;-84
2022/09/28 05:21:03;;;;;;;1.90;1.80;;;;;;;;;;5033548;28;20209;-84
2022/09/28 05:23:30;;;;;;;1.70;1.60;;;;;;;;;;5032238;28;20238;-84
2022/09/28 05:26:01;;;;;;;1.63;1.53;;;;;;;;;;5033937;28;20207;-83
2022/09/28 05:28:30;;;;;;;2.07;1.70;;;;;;;;;;5040194;28;20265;-85
2022/09/28 05:30:58;;;;;;;1.90;1.80;;;;;;;;;;5046962;28;20253;-86
2022/09/28 05:33:27;;;;;;;1.80;1.70;;;;;;;;;;5047580;28;20221;-86
2022/09/28 05:35:55;;;;;;;3.93;2.07;;;;;;;;;;5043160;28;20210;-83
2022/09/28 05:38:23;;;;;;;2.50;1.90;;;;;;;;;;5040381;28;20272;-84
2022/09/28 05:40:50;;;;;;;2.20;1.47;;;;;;;;;;5044008;28;20207;-82
2022/09/28 05:43:19;;;;;;;2.20;1.80;;;;;;;;;;5039756;28;20230;-84
2022/09/28 05:45:46;;;;;;;1.80;1.63;;;;;;;;;;5039931;28;20248;-83
2022/09/28 05:48:13;;;;;;;1.80;1.70;;;;;;;;;;5038513;28;20230;-85
2022/09/28 05:50:40;;;;;;;1.90;1.80;;;;;;;;;;5037251;28;20207;-83
2022/09/28 05:53:09;;;;;;;2.23;2.13;;;;;;;;;;5035542;28;20253;-85
2022/09/28 05:55:38;;;;;;;2.40;2.30;;;;;;;;;;5039795;28;20213;-83
2022/09/28 05:58:06;;;;;;;2.00;1.90;;;;;;;;;;5038827;28;20300;-82
2022/09/28 06:00:34;;;;;;;2.00;1.90;;;;;;;;;;5039298;28;20241;-82
2022/09/28 06:03:02;;;;;;;2.30;2.10;;;;;;;;;;5039201;28;20222;-83
2022/09/28 06:05:30;;;;;;;1.90;1.80;;;;;;;;;;5040669;28;20210;-82
2022/09/28 06:07:58;;;;;;;1.83;1.60;;;;;;;;;;5036277;28;20264;-85
2022/09/28 06:10:26;;;;;;;1.93;1.83;;;;;;;;;;5033036;28;20211;-79
2022/09/28 06:12:56;;;;;;;2.43;2.00;;;;;;;;;;5034231;28;20207;-85
2022/09/28 06:15:24;;;;;;;3.70;2.00;;;;;;;;;;5032515;28;20581;-84
2022/09/28 06:17:56;;;;;;;2.83;2.13;;;;;;;;;;5031946;28;20214;-84
2022/09/28 06:20:23;;;;;;;3.00;2.40;;;;;;;;;;5047664;28;20198;-85
2022/09/28 06:22:51;;;;;;;3.10;2.60;;;;;;;;;;5031992;28;20570;-84
2022/09/28 06:25:18;;;;;;;2.37;2.17;;;;;;;;;;5031899;28;20253;-84
2022/09/28 06:27:53;;;;;;;3.03;2.80;;;;;;;;;;5031367;28;20214;-84
2022/09/28 06:30:23;;;;;;;3.40;3.20;;;;;;;;;;5031839;28;20218;-84
2022/09/28 06:32:53;;;;;;;3.97;3.27;;;;;;;;;;5052919;28;20190;-84
2022/09/28 06:35:20;;;;;;;3.30;3.00;;;;;;;;;;5055607;28;20601;-84
2022/09/28 06:37:47;;;;;;;4.77;3.40;;;;;;;;;;5055332;28;20206;-84
2022/09/28 06:40:14;;;;;;;5.47;3.27;;;;;;;;;;5056438;28;20210;-84
2022/09/28 06:42:42;;;;;;;4.17;3.70;;;;;;;;;;5055559;28;20214;-84
2022/09/28 06:45:09;;;;;;;4.17;3.43;;;;;;;;;;5055514;28;20257;-84
2022/09/28 06:47:38;;;;;;;3.93;3.47;;;;;;;;;;5055836;28;20209;-84
2022/09/28 06:50:13;;;;;;;3.40;3.07;;;;;;;;;;5039864;28;20238;-84
2022/09/28 06:52:40;;;;;;;3.27;3.03;;;;;;;;;;5036497;28;20245;-84
2022/09/28 06:55:07;;;;;;;5.37;3.50;;;;;;;;;;5039125;28;20234;-82
2022/09/28 06:57:34;;;;;;;3.87;3.00;;;;;;;;;;5042205;28;20213;-84
2022/09/28 07:00:01;;;;;;;5.57;3.27;;;;;;;;;;5057663;28;20234;-84
2022/09/28 07:02:30;;;;;;;4.40;2.90;;;;;;;;;;5057862;28;20209;-83
2022/09/28 07:04:58;;;;;;;4.23;2.90;;;;;;;;;;5055859;28;20237;-85
2022/09/28 07:07:25;;;;;;;3.17;2.80;;;;;;;;;;5061083;28;20230;-81
2022/09/28 07:09:54;;;;;;;4.43;2.67;;;;;;;;;;5068777;28;20457;-84
2022/09/28 07:12:24;;;;;;;2.90;2.60;;;;;;;;;;5070958;28;20206;-81
2022/09/28 07:14:55;;;;;;;3.77;2.67;;;;;;;;;;5061950;28;20288;-82
2022/09/28 07:17:22;;;;;;;4.33;2.83;;;;;;;;;;5059171;28;20596;-83
2022/09/28 07:19:51;;;;;;;2.80;2.60;;;;;;;;;;5060263;28;20237;-83
2022/09/28 07:22:20;;;;;;;3.30;2.90;;;;;;;;;;5063487;28;20393;-82
2022/09/28 07:24:48;;;;;;;3.07;2.77;;;;;;;;;;5061967;28;20238;-83
2022/09/28 07:27:15;;;;;;;5.33;3.00;;;;;;;;;;5060870;28;20202;-86
2022/09/28 07:29:42;;;;;;;2.97;2.73;;;;;;;;;;5059850;28;20242;-83
2022/09/28 07:32:09;;;;;;;4.20;3.10;;;;;;;;;;5066592;28;20236;-83
2022/09/28 07:34:40;;;;;;;3.30;2.60;;;;;;;;;;5053469;28;20231;-83
2022/09/28 07:37:07;;;;;;;3.80;2.50;;;;;;;;;;5066950;28;20287;-84
2022/09/28 07:41:10;;;;;;;2.10;1.90;;;;;;;;;;5069068;28;20221;-84
2022/09/28 07:42:22;;;;;;;2.90;2.43;;;;;;;;;;5068204;28;20233;-82
2022/09/28 07:44:49;;;;;;;4.40;2.40;;;;;;;;;;5065827;28;20236;-81
2022/09/28 07:47:17;;;;;;;2.50;2.30;;;;;;;;;;5069005;28;20202;-82
2022/09/28 07:49:44;;;;;;;2.03;1.93;;;;;;;;;;5065603;28;20317;-82
2022/09/28 07:52:11;;;;;;;2.73;2.03;;;;;;;;;;5069481;28;20205;-83
2022/09/28 07:54:40;;;;;;;3.33;2.07;;;;;;;;;;5068628;28;20261;-82
2022/09/28 07:57:07;;;;;;;1.77;1.67;;;;;;;;;;5070515;28;20209;-81
2022/09/28 07:59:34;;;;;;;3.20;2.00;;;;;;;;;;5066619;28;20226;-83
2022/09/28 08:02:02;;;;;;;2.40;2.20;;;;;;;;;;5049336;28;20214;-83
2022/09/28 08:04:29;;;;;;;1.97;1.80;;;;;;;;;;5043889;28;20702;-84
2022/09/28 08:06:56;;;;;;;2.20;1.50;;;;;;;;;;5042213;28;20211;-82
2022/09/28 08:09:23;;;;;;;3.37;1.67;;;;;;;;;;5049283;28;20242;-84
2022/09/28 08:11:51;;;;;;;1.60;1.50;;;;;;;;;;5050474;28;20226;-83
2022/09/28 08:14:18;;;;;;;3.67;1.80;;;;;;;;;;5048432;28;20226;-83
2022/09/28 08:16:46;;;;;;;1.73;1.63;;;;;;;;;;5042301;28;20210;-81
2022/09/28 08:19:13;;;;;;;1.80;1.70;;;;;;;;;;5049714;28;20239;-82
2022/09/28 08:21:45;;;;;;;4.73;1.40;;;;;;;;;;5055136;28;20212;-84
2022/09/28 08:24:12;;;;;;;1.93;1.70;;;;;;;;;;5053308;28;20240;-84
2022/09/28 08:26:39;;;;;;;1.90;1.70;;;;;;;;;;5054017;28;20217;-84
2022/09/28 08:29:08;;;;;;;1.20;1.20;;;;;;;;;;5052754;28;20249;-85
2022/09/28 08:31:35;;;;;;;2.87;1.60;;;;;;;;;;5052971;28;20217;-84
2022/09/28 08:34:02;;;;;;;2.63;1.60;;;;;;;;;;5053667;28;20240;-83
2022/09/28 08:36:29;;;;;;;3.10;1.37;;;;;;;;;;5053544;28;20206;-84
2022/09/28 08:38:56;;;;;;;1.40;1.10;;;;;;;;;;5053081;28;20233;-84
2022/09/28 08:41:27;;;;;;;2.20;1.50;;;;;;;;;;5053917;28;20209;-84
2022/09/28 08:44:15;;;;;;;2.47;1.57;;;;;;;;;;5091748;22;20253;-78
2022/09/28 08:46:44;;;;;;;2.63;1.67;;;;;;;;;;5064559;28;20205;-78
2022/09/28 08:49:15;;;;;;;1.57;1.33;;;;;;;;;;5071409;28;20721;-78
2022/09/28 08:51:46;;;;;;;2.40;1.40;;;;;;;;;;5071962;28;20205;-78
2022/09/28 08:54:17;;;;;;;3.73;1.80;;;;;;;;;;5071500;28;20233;-78
2022/09/28 08:56:47;;;;;;;1.07;1.07;;;;;;;;;;5072073;28;20560;-78
2022/09/28 08:59:18;;;;;;;1.97;1.30;;;;;;;;;;5071425;28;20241;-79
2022/09/28 09:01:48;;;;;;;2.10;1.10;;;;;;;;;;5072501;28;20200;-78
2022/09/28 09:04:15;;;;;;;1.20;1.10;;;;;;;;;;5071338;28;20267;-78
2022/09/28 09:06:51;;;;;;;1.73;1.30;;;;;;;;;;5071652;28;20657;-79
2022/09/28 09:09:20;;;;;;;1.13;1.13;;;;;;;;;;5071454;28;20236;-79
2022/09/28 09:11:53;;;;;;;2.20;1.10;;;;;;;;;;5072234;28;20202;-78
2022/09/28 09:14:31;;;;;;;1.90;0.83;;;;;;;;;;5071629;28;20240;-78
2022/09/28 09:17:01;;;;;;;3.47;1.13;;;;;;;;;;5071858;28;20205;-79
2022/09/28 09:19:35;;;;;;;1.53;1.17;;;;;;;;;;5071303;28;20236;-78
2022/09/28 09:22:10;;;;;;;2.70;1.67;;;;;;;;;;5072537;28;20254;-78
2022/09/28 09:24:40;;;;;;;1.30;1.20;;;;;;;;;;5062788;28;20715;-79
2022/09/28 09:27:13;;;;;;;1.27;1.07;;;;;;;;;;5071812;28;20543;-78
2022/09/28 09:29:49;;;;;;;1.20;1.10;;;;;;;;;;5070860;28;20248;-80
2022/09/28 09:32:20;;;;;;;1.20;1.10;;;;;;;;;;5071469;28;20262;-79
2022/09/28 09:34:55;;;;;;;1.20;0.90;;;;;;;;;;5071074;28;20251;-79
2022/09/28 09:37:33;;;;;;;1.30;1.20;;;;;;;;;;5071423;28;20573;-78
2022/09/28 09:40:18;;;;;;;1.93;1.40;;;;;;;;;;5071122;28;20603;-79
2022/09/28 09:42:51;;;;;;;1.27;1.10;;;;;;;;;;5070720;28;20244;-79
2022/09/28 09:45:37;;;;;;;2.87;0.97;;;;;;;;;;5071549;28;20234;-79
2022/09/28 09:48:05;;;;;;;1.97;1.30;;;;;;;;;;5071179;28;20245;-79
2022/09/28 09:50:34;;;;;;;2.53;1.00;;;;;;;;;;5071680;28;20225;-79
2022/09/28 09:53:03;;;;;;;1.37;1.27;;;;;;;;;;5071496;28;20221;-79
2022/09/28 09:55:31;;;;;;;1.20;1.10;;;;;;;;;;5071766;28;20197;-80
2022/09/28 09:58:03;;;;;;;1.17;1.10;;;;;;;;;;5071446;28;20296;-79
2022/09/28 10:00:32;;;;;;;1.33;0.93;;;;;;;;;;5071629;28;20186;-79
2022/09/28 10:03:01;;;;;;;2.23;1.30;;;;;;;;;;5071358;28;20225;-79
2022/09/28 10:05:30;;;;;;;3.03;1.17;;;;;;;;;;5072209;28;20571;-79
2022/09/28 10:08:00;;;;;;;5.17;1.00;;;;;;;;;;5072159;28;20212;-80
2022/09/28 10:10:29;;;;;;;1.60;1.00;;;;;;;;;;5076967;28;20720;-79
2022/09/28 10:12:56;;;;;;;1.17;0.93;;;;;;;;;;5075364;28;20233;-80
2022/09/28 10:15:26;;;;;;;1.03;0.83;;;;;;;;;;5075281;28;20990;-79
2022/09/28 10:17:55;;;;;;;2.80;1.17;;;;;;;;;;5074371;28;20206;-79
2022/09/28 10:20:24;;;;;;;0.80;0.80;;;;;;;;;;5075461;28;20209;-79
2022/09/28 10:22:52;;;;;;;1.07;0.80;;;;;;;;;;5074846;28;20256;-79
2022/09/28 10:25:20;;;;;;;1.23;0.90;;;;;;;;;;5076039;28;20205;-79
2022/09/28 10:27:51;;;;;;;1.43;0.87;;;;;;;;;;5075446;28;20227;-79
2022/09/28 10:30:19;;;;;;;1.33;0.80;;;;;;;;;;5077513;28;20220;-79
2022/09/28 10:32:51;;;;;;;0.97;0.87;;;;;;;;;;5078235;28;20234;-80
2022/09/28 10:35:25;;;;;;;2.30;2.00;;;;;;;;;;5077279;28;20197;-80
2022/09/28 10:37:55;;;;;;;3.73;0.90;;;;;;;;;;5076576;28;20205;-80
2022/09/28 10:40:29;;;;;;;2.55;1.13;;;;;;;;;;5077783;28;20201;-80
2022/09/28 10:43:00;;;;;;;1.00;1.00;;;;;;;;;;5076239;28;20237;-79
2022/09/28 10:45:27;;;;;;;0.90;0.90;;;;;;;;;;5076932;28;20209;-81
2022/09/28 10:47:55;;;;;;;0.83;0.83;;;;;;;;;;5076322;28;20209;-80
2022/09/28 10:50:24;;;;;;;2.70;1.20;;;;;;;;;;5076499;28;20573;-80
2022/09/28 10:52:51;;;;;;;3.43;1.40;;;;;;;;;;5076386;28;20236;-80
2022/09/28 10:55:31;;;;;;;4.32;1.20;;;;;;;;;;5077657;28;20205;-80
2022/09/28 10:57:58;;;;;;;1.63;0.90;;;;;;;;;;5076210;28;20210;-80
2022/09/28 11:00:35;;;;;;;2.17;1.00;;;;;;;;;;5076059;28;20669;-80
2022/09/28 11:03:03;;;;;;;1.07;1.00;;;;;;;;;;5071535;28;20278;-80
2022/09/28 11:05:34;;;;;;;0.97;0.80;;;;;;;;;;5075713;28;20209;-80
2022/09/28 11:08:05;;;;;;;0.87;0.60;;;;;;;;;;5075449;28;20258;-79
2022/09/28 11:10:33;;;;;;;1.23;1.03;;;;;;;;;;5076231;28;20221;-80
2022/09/28 11:13:07;;;;;;;1.53;0.80;;;;;;;;;;5074738;28;20701;-79
2022/09/28 11:15:35;;;;;;;2.47;0.73;;;;;;;;;;5077737;28;20193;-80
2022/09/28 11:18:16;;;;;;;1.70;0.77;;;;;;;;;;5075293;28;20259;-79
2022/09/28 11:20:45;;;;;;;1.93;1.13;;;;;;;;;;5075907;28;20228;-80
2022/09/28 11:23:19;;;;;;;1.40;0.90;;;;;;;;;;5076946;28;20282;-81
2022/09/28 11:25:56;;;;;;;2.03;1.10;;;;;;;;;;5076593;28;20211;-80
2022/09/28 11:28:25;;;;;;;0.90;0.87;;;;;;;;;;5068017;28;20232;-80
2022/09/28 11:30:53;;;;;;;1.80;1.10;;;;;;;;;;5077829;28;20274;-80
2022/09/28 11:33:23;;;;;;;0.80;0.80;;;;;;;;;;5075799;28;20267;-81
2022/09/28 11:35:58;;;;;;;1.47;0.80;;;;;;;;;;5079978;28;20691;-82
2022/09/28 11:38:32;;;;;;;1.10;1.00;;;;;;;;;;5059305;28;20229;-80
2022/09/28 11:41:07;;;;;;;2.30;1.27;;;;;;;;;;5078062;28;20219;-81
2022/09/28 11:43:44;;;;;;;1.10;1.00;;;;;;;;;;5077356;28;20258;-81
2022/09/28 11:46:15;;;;;;;1.67;1.27;;;;;;;;;;5077955;28;20205;-83
2022/09/28 11:48:44;;;;;;;0.90;0.90;;;;;;;;;;5078484;28;20228;-82
2022/09/28 11:51:15;;;;;;;0.87;0.70;;;;;;;;;;5081099;28;20283;-82
2022/09/28 11:53:45;;;;;;;0.87;0.83;;;;;;;;;;5079686;28;20689;-82
2022/09/28 11:56:25;;;;;;;3.37;0.70;;;;;;;;;;5076938;28;20237;-80
2022/09/28 11:58:53;;;;;;;5.93;1.50;;;;;;;;;;5081992;28;20267;-86
2022/09/28 12:01:22;;;;;;;2.80;1.20;;;;;;;;;;5081995;28;20194;-81
2022/09/28 12:03:52;;;;;;;0.70;0.70;;;;;;;;;;5076392;28;20233;-80
2022/09/28 12:06:24;;;;;;;1.50;1.00;;;;;;;;;;5075565;28;20308;-80
2022/09/28 12:08:53;;;;;;;1.10;1.10;;;;;;;;;;5074534;28;20233;-80
2022/09/28 12:11:26;;;;;;;1.20;1.00;;;;;;;;;;5075709;28;20571;-80
2022/09/28 12:13:54;;;;;;;1.73;1.43;;;;;;;;;;5071067;28;20237;-80
2022/09/28 12:16:25;;;;;;;1.63;0.87;;;;;;;;;;5076161;28;20227;-79
2022/09/28 12:18:55;;;;;;;0.97;0.77;;;;;;;;;;5073087;28;20248;-81
2022/09/28 12:21:34;;;;;;;2.43;1.13;;;;;;;;;;5074050;28;20247;-80
2022/09/28 12:24:07;;;;;;;1.10;1.00;;;;;;;;;;5072699;28;20340;-79
2022/09/28 12:26:37;;;;;;;2.40;1.20;;;;;;;;;;5073823;28;20717;-81
2022/09/28 12:29:06;;;;;;;1.17;1.00;;;;;;;;;;5072894;28;20688;-80
2022/09/28 12:31:35;;;;;;;0.80;0.80;;;;;;;;;;5072931;28;20225;-79
2022/09/28 12:34:02;;;;;;;1.05;0.85;;;;;;;;;;5073064;28;20240;-80
2022/09/28 12:36:40;;;;;;;1.10;0.95;;;;;;;;;;5073190;28;20752;-80
2022/09/28 12:39:15;;;;;;;2.65;1.17;;;;;;;;;;5073569;28;20232;-80
2022/09/28 12:41:52;;;;;;;1.95;1.23;;;;;;;;;;5072125;28;20201;-79
2022/09/28 12:44:27;;;;;;;1.40;1.00;;;;;;;;;;5075343;28;20237;-81
2022/09/28 12:47:04;;;;;;;0.60;0.60;;;;;;;;;;5074456;28;20201;-79
2022/09/28 12:49:38;;;;;;;0.70;0.70;;;;;;;;;;5072182;28;20236;-79
2022/09/28 12:52:13;;;;;;;1.98;0.80;;;;;;;;;;5072679;28;20279;-80
2022/09/28 12:54:49;;;;;;;0.77;0.77;;;;;;;;;;5072319;28;20236;-81
2022/09/28 12:57:29;;;;;;;1.52;1.08;;;;;;;;;;5073762;28;20189;-79
2022/09/28 13:00:00;;;;;;;1.23;0.80;;;;;;;;;;5072003;28;20236;-81
2022/09/28 13:02:40;;;;;;;1.00;0.90;;;;;;;;;;5072524;28;20303;-79
2022/09/28 13:05:22;;;;;;;1.10;0.77;;;;;;;;;;5072373;28;20228;-80
2022/09/28 13:07:54;;;;;;;1.20;1.10;;;;;;;;;;5064716;28;20205;-79
2022/09/28 13:10:31;;;;;;;0.75;0.75;;;;;;;;;;5072781;28;20240;-80
2022/09/28 13:13:04;;;;;;;0.93;0.93;;;;;;;;;;5072401;28;20262;-79
2022/09/28 13:15:36;;;;;;;0.93;0.82;;;;;;;;;;5071860;28;20197;-79
2022/09/28 13:18:06;;;;;;;1.27;1.10;;;;;;;;;;5069310;28;20197;-79
2022/09/28 13:20:41;;;;;;;1.50;1.30;;;;;;;;;;5074185;28;20258;-79
2022/09/28 13:23:14;;;;;;;1.42;1.33;;;;;;;;;;5072842;28;20624;-79
2022/09/28 13:25:43;;;;;;;1.10;0.90;;;;;;;;;;5073802;28;20213;-80
2022/09/28 13:28:12;;;;;;;0.82;0.80;;;;;;;;;;5073521;28;20240;-81
2022/09/28 13:30:40;;;;;;;0.93;0.90;;;;;;;;;;5073468;28;20213;-80
2022/09/28 13:33:08;;;;;;;2.33;1.48;;;;;;;;;;5072412;28;20233;-79
2022/09/28 13:35:35;;;;;;;1.10;0.90;;;;;;;;;;5072495;28;20575;-79
2022/09/28 13:38:21;;;;;;;2.92;1.77;;;;;;;;;;5072181;28;20205;-80
2022/09/28 13:41:08;;;;;;;0.90;0.80;;;;;;;;;;5072548;28;20558;-80
2022/09/28 13:43:47;;;;;;;0.88;0.88;;;;;;;;;;5072103;28;20252;-80
2022/09/28 13:46:19;;;;;;;0.60;0.60;;;;;;;;;;5075627;28;20205;-80
2022/09/28 13:48:48;;;;;;;0.80;0.80;;;;;;;;;;5074062;28;20644;-79
2022/09/28 13:51:21;;;;;;;2.75;0.95;;;;;;;;;;5073682;28;20221;-79
2022/09/28 13:53:57;;;;;;;1.70;1.02;;;;;;;;;;5074532;28;20237;-80
2022/09/28 13:56:30;;;;;;;1.43;1.00;;;;;;;;;;5074740;28;20189;-80
2022/09/28 13:59:00;;;;;;;1.30;1.10;;;;;;;;;;5074858;28;20228;-79
2022/09/28 14:01:29;;;;;;;1.80;1.20;;;;;;;;;;5073478;28;20205;-82
2022/09/28 14:03:57;;;;;;;1.50;1.30;;;;;;;;;;5094142;28;20239;-81
2022/09/28 14:06:25;;;;;;;1.17;1.08;;;;;;;;;;5080357;28;20202;-81
2022/09/28 14:09:10;;;;;;;2.80;1.30;;;;;;;;;;5078514;28;20233;-80
2022/09/28 14:11:42;;;;;;;1.57;1.13;;;;;;;;;;5079580;28;20229;-81
2022/09/28 14:14:33;;;;;;;1.63;1.07;;;;;;;;;;5080778;28;20328;-81
2022/09/28 14:17:26;;;;;;;1.30;1.20;;;;;;;;;;5064667;28;20292;-81
2022/09/28 14:19:53;;;;;;;1.07;1.07;;;;;;;;;;5079760;28;20267;-81
2022/09/28 14:22:22;;;;;;;1.50;1.00;;;;;;;;;;5080968;28;20205;-81
2022/09/28 14:25:08;;;;;;;1.30;0.90;;;;;;;;;;5082419;28;20262;-82
2022/09/28 14:27:57;;;;;;;1.00;0.90;;;;;;;;;;5080238;28;20205;-81
2022/09/28 14:30:25;;;;;;;1.00;1.00;;;;;;;;;;5054455;28;20705;-82
2022/09/28 14:32:57;;;;;;;1.43;1.00;;;;;;;;;;5079187;28;20705;-81
2022/09/28 14:35:28;;;;;;;2.13;0.90;;;;;;;;;;5079354;28;20631;-83
2022/09/28 14:41:10;;;;;;;0.73;0.73;;;;;;;;;;5067234;28;20211;-82
2022/09/28 14:43:38;;;;;;;0.90;0.90;;;;;;;;;;5075456;28;20239;-82
2022/09/28 14:46:24;;;;;;;3.00;2.10;;;;;;;;;;5101821;22;20240;-81
2022/09/28 14:49:01;;;;;;;0.90;0.90;;;;;;;;;;5087171;28;20236;-82
2022/09/28 14:51:45;;;;;;;0.80;0.80;;;;;;;;;;5096087;28;20211;-86
2022/09/28 14:54:17;;;;;;;0.90;0.90;;;;;;;;;;5094997;28;20294;-82
2022/09/28 14:56:46;;;;;;;0.90;0.90;;;;;;;;;;5084932;28;20279;-84
2022/09/28 14:59:14;;;;;;;2.63;1.10;;;;;;;;;;5084300;28;20233;-82
2022/09/28 15:01:43;;;;;;;1.40;1.20;;;;;;;;;;5085157;28;20206;-84
2022/09/28 15:04:12;;;;;;;1.37;1.27;;;;;;;;;;5081572;28;20241;-82
2022/09/28 15:06:46;;;;;;;1.83;1.20;;;;;;;;;;5064333;28;20229;-83
2022/09/28 15:09:27;;;;;;;1.23;0.90;;;;;;;;;;5062550;28;20228;-82
2022/09/28 15:11:59;;;;;;;1.43;1.00;;;;;;;;;;5061963;28;20226;-81